Cap-des-Rosiers, Canada
Current Conditions -  °F | °C
As of 7:00 AM on Thursday 29 Jan 2015 (Local Time) from CYGP Reporting Station
Clear Clear  
Wind Chill: -8°   Ceiling: Unl
Heat Index:   Visibility: 15mi
Dew Point: -2°   Wind: 6mph
Humidity: 78%   Direction: 360°N
Pressure: 30.15"   Gusts: NA
Location:  48.86°N, 64.23°W
Report Text: CYGP 291200Z 36005KT 260V050 15SM SKC M16/M19 A3015 RMK SLP213
Loading
Personal Weather Stations






























Interactive Weather Map New forecast layout! Learn more

10-Day Weather Forecast

Advertisements
Track Severe Weather on mobile